Time;durP1;ratioP1;P1;durP2;ratioP2;P2;SDS_P1;SDS_P2;PMS_P1;PMS_P2;Temp;Humidity;BMP_temperature;BMP_pressure;BME280_temperature;BME280_humidity;BME280_pressure;Samples;Min_cycle;Max_cycle;Signal;HPM_P1;HPM_P2
2022/07/14 00:01:20;;;;;;;2.30;1.52;;;20.30;99.90;;;;;;5030005;28;20182;-83
2022/07/14 00:03:46;;;;;;;2.30;1.80;;;20.20;99.90;;;;;;5013279;28;20232;-84
2022/07/14 00:06:12;;;;;;;2.75;2.20;;;20.10;99.90;;;;;;5013528;28;20201;-83
2022/07/14 00:08:38;;;;;;;1.67;1.58;;;19.90;99.90;;;;;;5013549;28;20193;-83
2022/07/14 00:11:04;;;;;;;2.38;1.90;;;19.80;99.90;;;;;;5014281;28;20235;-83
2022/07/14 00:13:30;;;;;;;1.70;1.45;;;19.60;99.90;;;;;;5029959;28;20256;-83
2022/07/14 00:15:56;;;;;;;2.35;1.85;;;19.50;99.90;;;;;;5014115;28;20551;-83
2022/07/14 00:18:22;;;;;;;1.90;1.70;;;19.40;99.90;;;;;;5014585;28;20192;-83
2022/07/14 00:20:48;;;;;;;6.75;2.05;;;19.30;99.90;;;;;;5014421;28;20182;-84
2022/07/14 00:23:14;;;;;;;1.70;1.60;;;19.20;99.90;;;;;;5014195;28;20181;-83
2022/07/14 00:25:39;;;;;;;1.63;1.52;;;19.20;99.90;;;;;;5013240;28;20300;-84
2022/07/14 00:28:05;;;;;;;2.67;1.92;;;19.20;99.90;;;;;;5012926;28;20245;-83
2022/07/14 00:30:31;;;;;;;2.00;1.80;;;19.20;99.90;;;;;;5014519;28;20635;-83
2022/07/14 00:32:56;;;;;;;4.35;2.10;;;19.10;99.90;;;;;;5013992;28;20177;-84
2022/07/14 00:35:22;;;;;;;2.30;2.03;;;19.00;99.90;;;;;;5013280;28;20255;-84
2022/07/14 00:37:47;;;;;;;2.75;2.00;;;19.00;99.90;;;;;;5014041;28;20181;-83
2022/07/14 00:40:13;;;;;;;2.38;1.90;;;19.00;99.90;;;;;;5014036;28;20634;-83
2022/07/14 00:42:47;;;;;;;3.67;2.40;;;18.90;99.90;;;;;;5012961;28;20198;-83
2022/07/14 00:45:18;;;;;;;2.47;2.20;;;18.90;99.90;;;;;;5013892;28;20223;-83
2022/07/14 00:47:46;;;;;;;2.60;1.60;;;18.90;99.90;;;;;;5014162;28;20169;-83
2022/07/14 00:50:14;;;;;;;2.00;1.90;;;18.90;99.90;;;;;;5013782;28;20174;-83
2022/07/14 00:52:41;;;;;;;2.75;2.08;;;18.80;99.90;;;;;;5012524;28;20589;-83
2022/07/14 00:55:08;;;;;;;1.63;1.50;;;18.70;99.90;;;;;;5014038;28;20177;-83
2022/07/14 00:57:34;;;;;;;2.42;1.98;;;18.70;99.90;;;;;;5029273;28;20615;-83
2022/07/14 00:59:59;;;;;;;2.83;2.25;;;18.70;99.90;;;;;;5013688;28;20173;-83
2022/07/14 01:02:25;;;;;;;4.15;2.45;;;18.60;99.90;;;;;;5012511;28;20235;-83
2022/07/14 01:04:51;;;;;;;2.85;2.20;;;18.60;99.90;;;;;;5013466;28;20243;-83
2022/07/14 01:07:18;;;;;;;5.75;2.15;;;18.50;99.90;;;;;;5013873;28;20630;-83
2022/07/14 01:09:44;;;;;;;3.72;2.30;;;18.50;99.90;;;;;;5013688;28;20192;-83
2022/07/14 01:12:11;;;;;;;4.25;2.53;;;18.60;99.90;;;;;;5013497;28;20199;-83
2022/07/14 01:14:37;;;;;;;2.20;2.00;;;18.60;99.90;;;;;;5013514;28;20185;-83
2022/07/14 01:17:05;;;;;;;4.32;2.05;;;18.60;99.90;;;;;;5013432;28;20236;-83
2022/07/14 01:19:32;;;;;;;1.98;1.77;;;18.60;99.90;;;;;;5013665;28;20623;-83
2022/07/14 01:21:58;;;;;;;2.15;1.70;;;18.60;99.90;;;;;;5013668;28;20184;-85
2022/07/14 01:24:25;;;;;;;3.90;2.10;;;18.60;99.90;;;;;;5013480;28;20177;-84
2022/07/14 01:26:51;;;;;;;4.80;2.33;;;18.50;99.90;;;;;;5028676;28;20287;-82
2022/07/14 01:29:18;;;;;;;1.88;1.55;;;18.60;99.90;;;;;;5013271;28;20211;-84
2022/07/14 01:31:43;;;;;;;3.83;2.08;;;18.50;99.90;;;;;;5013518;28;20173;-84
2022/07/14 01:34:09;;;;;;;7.93;1.98;;;18.50;99.90;;;;;;5028439;28;20276;-84
2022/07/14 01:36:35;;;;;;;3.53;2.50;;;18.50;99.90;;;;;;5017578;28;20634;-84
2022/07/14 01:39:02;;;;;;;2.13;1.83;;;18.40;99.90;;;;;;5032550;28;20268;-84
2022/07/14 01:41:28;;;;;;;2.50;2.30;;;18.40;99.90;;;;;;5017554;28;20260;-84
2022/07/14 01:43:54;;;;;;;2.40;2.15;;;18.40;99.90;;;;;;5017409;28;20260;-84
2022/07/14 01:46:19;;;;;;;4.20;2.30;;;18.40;99.90;;;;;;5032214;28;20262;-84
2022/07/14 01:48:45;;;;;;;3.03;2.38;;;18.30;99.90;;;;;;4999828;28;20181;-82
2022/07/14 01:51:10;;;;;;;2.13;1.90;;;18.30;99.90;;;;;;5015856;28;20185;-84
2022/07/14 01:53:36;;;;;;;2.95;2.20;;;18.30;99.90;;;;;;5017129;28;20260;-84
2022/07/14 01:56:02;;;;;;;4.85;2.33;;;18.30;99.90;;;;;;5016821;28;20268;-85
2022/07/14 01:58:27;;;;;;;3.13;2.33;;;18.30;99.90;;;;;;5016990;28;20173;-84
2022/07/14 02:03:38;;;;;;;2.75;2.10;;;18.30;99.90;;;;;;5027366;28;20189;-85
2022/07/14 02:06:04;;;;;;;2.60;1.67;;;18.20;99.90;;;;;;5036673;28;20201;-85
2022/07/14 02:08:29;;;;;;;2.55;2.00;;;18.20;99.90;;;;;;5027801;28;20173;-84
2022/07/14 02:13:39;;;;;;;3.40;2.40;;;18.20;99.90;;;;;;5016933;28;20256;-84
2022/07/14 02:16:05;;;;;;;3.58;2.30;;;18.20;99.90;;;;;;5016616;28;20596;-84
2022/07/14 02:18:31;;;;;;;4.75;2.08;;;18.20;99.90;;;;;;5015621;28;20244;-84
2022/07/14 02:20:56;;;;;;;8.63;2.00;;;18.20;99.90;;;;;;5016729;28;20208;-84
2022/07/14 02:23:23;;;;;;;2.85;1.85;;;18.20;99.90;;;;;;5016764;28;20177;-85
2022/07/14 02:25:49;;;;;;;2.65;1.80;;;18.10;99.90;;;;;;5016699;28;20205;-84
2022/07/14 02:28:15;;;;;;;2.45;2.15;;;18.10;99.90;;;;;;5016917;28;20588;-85
2022/07/14 02:30:41;;;;;;;4.93;2.22;;;18.10;99.90;;;;;;5016610;28;20201;-84
2022/07/14 02:33:07;;;;;;;3.45;2.22;;;18.00;99.90;;;;;;4982614;28;20206;-85
2022/07/14 02:35:34;;;;;;;2.08;1.83;;;18.00;99.90;;;;;;5016533;28;20177;-84
2022/07/14 02:38:00;;;;;;;6.07;2.42;;;18.00;99.90;;;;;;5016489;28;20177;-85
2022/07/14 02:40:26;;;;;;;2.15;1.92;;;18.00;99.90;;;;;;5014715;28;20173;-84
2022/07/14 02:42:52;;;;;;;5.97;2.28;;;18.00;99.90;;;;;;5016387;28;20178;-85
2022/07/14 02:45:17;;;;;;;2.58;2.05;;;18.00;99.90;;;;;;5016044;28;20689;-84
2022/07/14 02:47:43;;;;;;;2.85;2.15;;;17.90;99.90;;;;;;5030096;28;20199;-84
2022/07/14 02:50:10;;;;;;;3.20;1.90;;;18.00;99.90;;;;;;5015805;28;20177;-84
2022/07/14 02:52:36;;;;;;;2.72;1.55;;;18.00;99.90;;;;;;5016205;28;20181;-84
2022/07/14 02:55:02;;;;;;;2.22;1.60;;;18.10;99.90;;;;;;5015209;28;20552;-85
2022/07/14 02:57:28;;;;;;;2.45;1.98;;;18.00;99.90;;;;;;5014883;28;20255;-83
2022/07/14 02:59:54;;;;;;;2.50;1.77;;;18.00;99.90;;;;;;5029690;28;20279;-85
2022/07/14 03:02:20;;;;;;;2.60;2.17;;;18.10;99.90;;;;;;5013233;28;20271;-84
2022/07/14 03:04:45;;;;;;;2.90;1.70;;;18.10;99.90;;;;;;5014198;28;20204;-84
2022/07/14 03:07:11;;;;;;;2.47;2.10;;;18.00;99.90;;;;;;5014373;28;20211;-84
2022/07/14 03:09:36;;;;;;;2.47;1.90;;;18.10;99.90;;;;;;5014336;28;20188;-85
2022/07/14 03:12:02;;;;;;;2.10;1.77;;;18.00;99.90;;;;;;5013587;28;20243;-84
2022/07/14 03:14:28;;;;;;;3.08;1.70;;;18.10;99.90;;;;;;5013464;28;20611;-84
2022/07/14 03:16:53;;;;;;;1.83;1.60;;;18.10;99.90;;;;;;5014364;28;20268;-85
2022/07/14 03:19:19;;;;;;;1.85;1.55;;;18.00;99.90;;;;;;5010523;28;20532;-85
2022/07/14 03:21:44;;;;;;;2.97;1.80;;;18.00;99.90;;;;;;5012540;28;20201;-85
2022/07/14 03:24:10;;;;;;;2.55;2.22;;;17.90;99.90;;;;;;5012478;28;20177;-86
2022/07/14 03:26:36;;;;;;;2.00;1.60;;;18.00;99.90;;;;;;5012135;28;20702;-86
2022/07/14 03:29:02;;;;;;;2.25;1.67;;;18.00;99.90;;;;;;5030775;28;20607;-85
2022/07/14 03:31:28;;;;;;;3.50;1.80;;;18.00;99.90;;;;;;5015525;28;20174;-87
2022/07/14 03:33:53;;;;;;;1.85;1.63;;;18.00;99.90;;;;;;5014500;28;20671;-87
2022/07/14 03:36:23;;;;;;;3.95;2.42;;;18.00;99.90;;;;;;5014074;28;20268;-88
2022/07/14 03:38:49;;;;;;;2.28;2.03;;;17.90;99.90;;;;;;5014217;28;20218;-89
2022/07/14 03:41:14;;;;;;;3.15;2.30;;;17.90;99.90;;;;;;5029707;28;20212;-88
2022/07/14 03:43:40;;;;;;;3.60;2.15;;;17.90;99.90;;;;;;5022833;28;20192;-88
2022/07/14 03:46:06;;;;;;;3.15;2.33;;;17.90;99.90;;;;;;5039125;28;20209;-88
2022/07/14 03:48:33;;;;;;;2.22;2.03;;;17.90;99.90;;;;;;5039389;28;20169;-87
2022/07/14 03:51:00;;;;;;;3.13;2.30;;;17.90;99.90;;;;;;5039641;28;20174;-89
2022/07/14 03:53:26;;;;;;;2.13;1.90;;;18.00;99.90;;;;;;5038620;28;20213;-88
2022/07/14 03:55:51;;;;;;;3.42;2.58;;;18.00;99.90;;;;;;5039264;28;20166;-89
2022/07/14 03:58:17;;;;;;;3.45;2.30;;;18.00;99.90;;;;;;5038326;28;20165;-88
2022/07/14 04:00:43;;;;;;;2.28;2.08;;;18.10;99.90;;;;;;5039182;28;20187;-88
2022/07/14 04:03:11;;;;;;;4.47;2.17;;;18.10;99.90;;;;;;5038607;28;20177;-88
2022/07/14 04:05:37;;;;;;;4.40;2.20;;;18.10;99.90;;;;;;5038792;28;20232;-88
2022/07/14 04:08:03;;;;;;;3.03;2.13;;;18.20;99.90;;;;;;5022476;28;20165;-87
2022/07/14 04:10:28;;;;;;;2.55;2.35;;;18.20;99.90;;;;;;5046067;28;20193;-88
2022/07/14 04:12:56;;;;;;;3.13;2.20;;;18.20;99.90;;;;;;5034430;28;20173;-89
2022/07/14 04:15:23;;;;;;;2.67;1.75;;;18.20;99.90;;;;;;5013829;28;20658;-88
2022/07/14 04:17:50;;;;;;;2.15;1.92;;;18.20;99.90;;;;;;5014763;28;20602;-89
2022/07/14 04:20:16;;;;;;;3.05;2.50;;;18.30;99.90;;;;;;5013607;28;20181;-88
2022/07/14 04:22:42;;;;;;;2.05;1.75;;;18.30;99.90;;;;;;5014491;28;20186;-87
2022/07/14 04:25:12;;;;;;;3.25;2.25;;;18.40;99.90;;;;;;5008347;28;20209;-88
2022/07/14 04:27:38;;;;;;;2.80;2.35;;;18.40;99.90;;;;;;5003734;28;20233;-88
2022/07/14 04:30:04;;;;;;;3.17;2.35;;;18.40;99.90;;;;;;5001989;28;20668;-88
2022/07/14 04:32:30;;;;;;;3.92;2.30;;;18.50;99.90;;;;;;5010792;28;20182;-88
2022/07/14 04:34:56;;;;;;;3.30;2.40;;;18.50;99.90;;;;;;5012885;28;20529;-88
2022/07/14 04:37:22;;;;;;;3.00;1.92;;;18.60;99.90;;;;;;5012156;28;20184;-87
2022/07/14 04:39:47;;;;;;;4.65;2.30;;;18.70;99.90;;;;;;5013381;28;20177;-88
2022/07/14 04:42:14;;;;;;;3.75;2.83;;;18.70;99.90;;;;;;5010982;28;20270;-88
2022/07/14 04:44:41;;;;;;;4.18;2.50;;;18.80;99.90;;;;;;5012719;28;20221;-88
2022/07/14 04:47:07;;;;;;;4.45;2.42;;;18.80;99.90;;;;;;4995656;28;20181;-88
2022/07/14 04:52:17;;;;;;;14.98;2.88;;;18.90;99.90;;;;;;4979994;28;20734;-88
2022/07/14 04:54:45;;;;;;;2.30;2.10;;;18.90;99.90;;;;;;4994461;28;20181;-88
2022/07/14 04:57:11;;;;;;;2.65;2.33;;;18.90;99.90;;;;;;4994611;28;20269;-88
2022/07/14 04:59:37;;;;;;;4.05;2.78;;;18.90;99.90;;;;;;4994203;28;20263;-88
2022/07/14 05:02:03;;;;;;;3.42;2.65;;;19.00;99.90;;;;;;4994424;28;20213;-87
2022/07/14 05:04:29;;;;;;;4.82;2.40;;;19.00;99.90;;;;;;4995023;28;20181;-88
2022/07/14 05:06:55;;;;;;;3.05;2.53;;;19.00;99.90;;;;;;4994301;28;20193;-88
2022/07/14 05:09:22;;;;;;;2.97;2.47;;;19.00;99.90;;;;;;4994600;28;20190;-87
2022/07/14 05:11:49;;;;;;;2.92;2.20;;;19.10;99.90;;;;;;4978012;28;20268;-87
2022/07/14 05:14:15;;;;;;;3.15;2.20;;;19.20;99.90;;;;;;4995418;28;20205;-88
2022/07/14 05:16:41;;;;;;;4.32;2.67;;;19.20;99.90;;;;;;5020157;28;20656;-86
2022/07/14 05:19:06;;;;;;;3.00;2.58;;;19.40;99.90;;;;;;5027004;28;20580;-86
2022/07/14 05:21:33;;;;;;;3.45;2.38;;;19.50;99.90;;;;;;5022610;28;20242;-87
2022/07/14 05:23:59;;;;;;;3.15;2.13;;;19.50;99.90;;;;;;5028623;28;20184;-87
2022/07/14 05:26:24;;;;;;;4.53;2.13;;;19.60;99.90;;;;;;5011458;28;20579;-87
2022/07/14 05:28:50;;;;;;;3.38;2.45;;;19.70;99.90;;;;;;5012509;28;20237;-87
2022/07/14 05:31:16;;;;;;;3.85;2.35;;;19.80;99.90;;;;;;5011200;28;20642;-87
2022/07/14 05:33:41;;;;;;;3.38;2.60;;;19.90;99.90;;;;;;5010269;28;20189;-88
2022/07/14 05:36:07;;;;;;;3.28;2.95;;;20.10;99.90;;;;;;4994601;28;20187;-89
2022/07/14 05:38:33;;;;;;;3.67;2.72;;;20.10;99.90;;;;;;5010616;28;20192;-87
2022/07/14 05:41:01;;;;;;;2.95;2.72;;;20.20;99.90;;;;;;5012461;28;20629;-88
2022/07/14 05:43:27;;;;;;;4.07;2.45;;;20.30;99.90;;;;;;5011438;28;20201;-89
2022/07/14 05:45:52;;;;;;;3.80;2.80;;;20.20;99.90;;;;;;5013718;28;20549;-89
2022/07/14 05:48:18;;;;;;;3.35;3.00;;;20.20;99.90;;;;;;5011727;28;20654;-87
2022/07/14 05:50:44;;;;;;;4.72;2.88;;;20.30;99.90;;;;;;5028197;28;20173;-85
2022/07/14 05:53:09;;;;;;;6.18;2.80;;;20.40;99.90;;;;;;5029928;28;20197;-89
2022/07/14 05:55:35;;;;;;;3.58;2.60;;;20.40;99.90;;;;;;5027727;28;20220;-88
2022/07/14 05:58:01;;;;;;;3.15;2.42;;;20.50;99.90;;;;;;5021201;28;20193;-87
2022/07/14 06:00:27;;;;;;;2.90;2.47;;;20.60;99.90;;;;;;5015493;28;20189;-87
2022/07/14 06:02:52;;;;;;;3.22;2.60;;;20.70;99.90;;;;;;5009479;28;20575;-90
2022/07/14 06:05:18;;;;;;;2.97;2.22;;;20.90;99.90;;;;;;5008352;28;20267;-86
2022/07/14 06:07:44;;;;;;;2.88;2.20;;;20.60;99.90;;;;;;5025875;28;20193;-86
2022/07/14 06:10:11;;;;;;;4.47;2.65;;;21.10;99.90;;;;;;5010358;28;20184;-87
2022/07/14 06:12:37;;;;;;;3.42;2.42;;;21.20;99.90;;;;;;5011348;28;20177;-86
2022/07/14 06:15:10;;;;;;;3.08;2.42;;;21.20;99.90;;;;;;4992069;28;20267;-86
2022/07/14 06:17:36;;;;;;;2.38;2.13;;;21.20;99.90;;;;;;5006525;28;20174;-87
2022/07/14 06:20:06;;;;;;;2.83;2.42;;;21.20;99.90;;;;;;5007253;28;20183;-85
2022/07/14 06:22:41;;;;;;;2.85;2.30;;;21.20;99.90;;;;;;5012274;28;20232;-85
2022/07/14 06:25:07;;;;;;;2.38;2.17;;;21.30;99.90;;;;;;5012706;28;20208;-85
2022/07/14 06:27:33;;;;;;;4.07;2.33;;;21.30;99.90;;;;;;5010669;28;20243;-84
2022/07/14 06:30:04;;;;;;;3.10;2.25;;;21.40;99.90;;;;;;5011441;28;20263;-85
2022/07/14 06:32:29;;;;;;;2.40;2.20;;;21.50;99.90;;;;;;5014037;28;20215;-85
2022/07/14 06:34:55;;;;;;;3.08;2.50;;;21.50;99.90;;;;;;5013961;28;20181;-85
2022/07/14 06:37:21;;;;;;;2.08;1.83;;;21.60;99.90;;;;;;5014673;28;20181;-85
2022/07/14 06:39:46;;;;;;;2.00;1.80;;;21.70;99.90;;;;;;5015371;28;20189;-84
2022/07/14 06:42:13;;;;;;;3.33;2.40;;;21.90;99.90;;;;;;5014263;28;20181;-86
2022/07/14 06:44:39;;;;;;;3.03;1.95;;;21.90;99.90;;;;;;4996120;28;20181;-85
2022/07/14 06:47:05;;;;;;;2.45;2.03;;;22.00;99.90;;;;;;5013011;28;20658;-83
2022/07/14 06:49:31;;;;;;;2.60;1.92;;;22.00;99.90;;;;;;5011679;28;20189;-85
2022/07/14 06:51:56;;;;;;;4.25;2.25;;;22.10;99.90;;;;;;5012984;28;20192;-84
2022/07/14 06:54:22;;;;;;;4.55;2.30;;;22.20;99.90;;;;;;5012329;28;20712;-83
2022/07/14 06:56:47;;;;;;;2.97;2.13;;;22.20;99.90;;;;;;5007124;28;20234;-84
2022/07/14 06:59:13;;;;;;;2.83;2.05;;;22.20;99.90;;;;;;5013514;28;20186;-84
2022/07/14 07:01:39;;;;;;;3.28;2.20;;;22.20;99.90;;;;;;5013347;28;20186;-84
2022/07/14 07:04:04;;;;;;;2.78;1.90;;;22.20;99.90;;;;;;5015317;28;20181;-84
2022/07/14 07:06:45;;;;;;;2.40;2.20;;;22.20;99.90;;;;;;4997658;28;20241;-86
2022/07/14 07:09:12;;;;;;;3.13;2.20;;;22.10;99.90;;;;;;4995444;28;20216;-84
2022/07/14 07:11:39;;;;;;;3.05;2.42;;;22.10;99.90;;;;;;4998130;28;20235;-84
2022/07/14 07:14:04;;;;;;;3.20;2.17;;;22.10;99.90;;;;;;5013239;28;20189;-83
2022/07/14 07:16:30;;;;;;;2.67;2.08;;;22.10;99.90;;;;;;5013377;28;20212;-84
2022/07/14 07:18:56;;;;;;;2.88;2.25;;;22.10;99.90;;;;;;5014922;28;20253;-84
2022/07/14 07:21:21;;;;;;;3.60;2.55;;;22.00;99.90;;;;;;5013725;28;20264;-83
2022/07/14 07:23:48;;;;;;;3.33;2.70;;;22.00;99.90;;;;;;5014293;28;20174;-83
2022/07/14 07:26:15;;;;;;;3.08;2.35;;;22.00;99.90;;;;;;5011104;28;20662;-84
2022/07/14 07:28:41;;;;;;;2.28;1.98;;;22.10;99.90;;;;;;4988383;28;20237;-83
2022/07/14 07:31:07;;;;;;;2.78;2.42;;;22.20;99.90;;;;;;5001098;28;20186;-83
2022/07/14 07:33:32;;;;;;;2.70;2.50;;;22.20;99.90;;;;;;5005787;28;20190;-83
2022/07/14 07:35:59;;;;;;;4.35;2.50;;;22.30;99.90;;;;;;5011667;28;20181;-83
2022/07/14 07:38:25;;;;;;;4.20;2.65;;;22.30;99.90;;;;;;5003923;28;20243;-85
2022/07/14 07:40:53;;;;;;;3.42;2.40;;;22.30;99.90;;;;;;5013356;28;20173;-85
2022/07/14 07:43:20;;;;;;;3.45;2.45;;;22.30;99.90;;;;;;5012523;28;20584;-85
2022/07/14 07:45:49;;;;;;;3.55;2.42;;;22.30;99.90;;;;;;5013624;28;20205;-85
2022/07/14 07:48:14;;;;;;;3.03;2.20;;;22.30;99.90;;;;;;5029079;28;20602;-86
2022/07/14 07:50:42;;;;;;;3.03;2.50;;;22.40;99.90;;;;;;5011877;28;20211;-85
2022/07/14 07:53:08;;;;;;;2.90;2.35;;;22.50;99.90;;;;;;5014301;28;20185;-85
2022/07/14 07:55:34;;;;;;;3.60;2.28;;;22.60;99.90;;;;;;5030200;28;20212;-84
2022/07/14 07:58:00;;;;;;;5.85;3.33;;;22.60;99.90;;;;;;5014687;28;20626;-83
2022/07/14 08:00:25;;;;;;;3.50;2.38;;;22.70;99.90;;;;;;4997596;28;20180;-84
2022/07/14 08:02:53;;;;;;;3.17;2.70;;;22.80;99.90;;;;;;5011651;28;20289;-84
2022/07/14 08:05:21;;;;;;;2.70;2.22;;;22.90;99.90;;;;;;5014861;28;20205;-84
2022/07/14 08:07:47;;;;;;;2.97;2.53;;;22.80;99.90;;;;;;5029916;28;20622;-83
2022/07/14 08:10:14;;;;;;;3.58;2.20;;;22.90;99.90;;;;;;4997989;28;20623;-83
2022/07/14 08:12:40;;;;;;;2.85;1.98;;;23.00;99.90;;;;;;4993850;28;20626;-83
2022/07/14 08:15:07;;;;;;;2.55;2.10;;;23.20;99.90;;;;;;4996294;28;20178;-83
2022/07/14 08:17:33;;;;;;;2.15;1.95;;;23.20;99.90;;;;;;4993754;28;20265;-86
2022/07/14 08:19:59;;;;;;;2.97;2.53;;;23.40;99.90;;;;;;4994789;28;20178;-83
2022/07/14 08:22:26;;;;;;;3.28;2.60;;;23.50;99.90;;;;;;5005625;28;20196;-84
2022/07/14 08:24:53;;;;;;;2.55;2.28;;;23.50;99.90;;;;;;5014219;28;20212;-84
2022/07/14 08:27:18;;;;;;;2.28;1.95;;;23.50;99.90;;;;;;5014476;28;20721;-84
2022/07/14 08:29:44;;;;;;;3.05;2.63;;;23.70;99.90;;;;;;5012880;28;20260;-84
2022/07/14 08:32:09;;;;;;;3.00;2.42;;;23.80;99.90;;;;;;5013315;28;20188;-84
2022/07/14 08:34:35;;;;;;;3.22;2.25;;;23.80;99.90;;;;;;4996538;28;20689;-85
2022/07/14 08:37:01;;;;;;;2.92;2.40;;;23.90;99.90;;;;;;5013993;28;20177;-84
2022/07/14 08:39:27;;;;;;;2.47;2.15;;;24.00;99.90;;;;;;4996625;28;20185;-84
2022/07/14 08:41:56;;;;;;;2.15;1.73;;;24.20;99.90;;;;;;5013024;28;20235;-85
2022/07/14 08:44:23;;;;;;;3.22;2.10;;;24.10;99.90;;;;;;4997071;28;20547;-84
2022/07/14 08:46:50;;;;;;;1.98;1.70;;;24.10;99.90;;;;;;5013921;28;20221;-85
2022/07/14 08:49:16;;;;;;;3.22;2.50;;;24.20;99.90;;;;;;5005396;28;20232;-85
2022/07/14 08:51:43;;;;;;;2.83;2.17;;;24.30;99.90;;;;;;5009965;28;20238;-85
2022/07/14 08:54:09;;;;;;;3.45;2.20;;;24.40;99.90;;;;;;5014070;28;20185;-84
2022/07/14 08:56:36;;;;;;;4.70;2.20;;;24.50;99.90;;;;;;5013972;28;20181;-84
2022/07/14 08:59:02;;;;;;;2.90;2.60;;;24.50;99.90;;;;;;5014253;28;20191;-85
2022/07/14 09:01:28;;;;;;;5.32;2.28;;;24.50;99.90;;;;;;5013793;28;20185;-84
2022/07/14 09:03:54;;;;;;;3.17;2.58;;;24.50;99.90;;;;;;5013677;28;20188;-85
2022/07/14 09:06:50;;;;;;;3.17;2.17;;;24.70;99.90;;;;;;5013372;28;20205;-85
2022/07/14 09:09:27;;;;;;;2.85;2.45;;;24.90;99.90;;;;;;5016488;28;20178;-85
2022/07/14 09:12:00;;;;;;;2.30;1.92;;;24.90;99.90;;;;;;4993934;28;20180;-85
2022/07/14 09:14:28;;;;;;;2.28;1.95;;;25.00;99.90;;;;;;4994317;28;20245;-84
2022/07/14 09:17:13;;;;;;;2.45;1.85;;;25.10;99.90;;;;;;4994703;28;20175;-85
2022/07/14 09:20:11;;;;;;;2.60;2.03;;;25.20;99.90;;;;;;4993958;28;20180;-85
2022/07/14 09:22:38;;;;;;;1.88;1.65;;;25.30;99.90;;;;;;5005822;28;20181;-84
2022/07/14 09:25:09;;;;;;;3.17;1.90;;;25.40;99.90;;;;;;5011856;28;20213;-84
2022/07/14 09:27:36;;;;;;;2.25;1.90;;;25.40;99.90;;;;;;5006570;28;20702;-84
2022/07/14 09:30:04;;;;;;;1.98;1.60;;;25.40;99.90;;;;;;4993285;28;20640;-85
2022/07/14 09:32:42;;;;;;;1.80;1.65;;;25.40;99.90;;;;;;5002517;28;20275;-84
2022/07/14 09:35:09;;;;;;;2.50;1.55;;;25.30;99.90;;;;;;5006867;28;20182;-83
2022/07/14 09:37:38;;;;;;;2.22;1.98;;;25.30;99.90;;;;;;5002494;28;20180;-83
2022/07/14 09:40:06;;;;;;;3.22;2.10;;;25.40;99.90;;;;;;5006997;28;20185;-85
2022/07/14 09:42:50;;;;;;;2.03;1.45;;;25.60;99.90;;;;;;5015632;28;20253;-84
2022/07/14 09:45:17;;;;;;;2.03;1.63;;;25.70;99.90;;;;;;5000498;28;20312;-83
2022/07/14 09:48:02;;;;;;;1.90;1.70;;;25.90;99.90;;;;;;5017330;28;20184;-86
2022/07/14 09:50:35;;;;;;;3.65;2.00;;;26.10;99.90;;;;;;5011527;28;20199;-84
2022/07/14 09:53:10;;;;;;;1.67;1.58;;;26.20;99.90;;;;;;5029698;28;20189;-85
2022/07/14 09:55:39;;;;;;;2.10;1.90;;;26.00;99.90;;;;;;5015146;28;20271;-85
2022/07/14 09:58:08;;;;;;;3.22;1.80;;;25.80;99.90;;;;;;5021125;28;20182;-83
2022/07/14 10:00:35;;;;;;;2.20;2.00;;;25.80;99.90;;;;;;5021675;28;20173;-83
2022/07/14 10:03:04;;;;;;;1.67;1.48;;;26.00;99.90;;;;;;5026270;28;20158;-83
2022/07/14 10:05:34;;;;;;;4.18;1.83;;;26.10;99.90;;;;;;5040669;28;20269;-87
2022/07/14 10:08:02;;;;;;;1.80;1.60;;;26.20;99.90;;;;;;5040806;28;20253;-85
2022/07/14 10:10:31;;;;;;;1.80;1.70;;;26.30;99.90;;;;;;5036338;28;20169;-83
2022/07/14 10:12:57;;;;;;;1.55;1.45;;;26.40;99.90;;;;;;5037172;28;20181;-83
2022/07/14 10:15:24;;;;;;;2.08;1.70;;;26.60;99.90;;;;;;4982379;28;20192;-83
2022/07/14 10:17:50;;;;;;;1.92;1.70;;;26.60;99.90;;;;;;5036042;28;20248;-83
2022/07/14 10:20:16;;;;;;;2.22;2.03;;;26.30;99.30;;;;;;5045036;28;20254;-86
2022/07/14 10:22:45;;;;;;;3.03;1.80;;;26.10;99.90;;;;;;5019749;28;20173;-90
2022/07/14 10:25:11;;;;;;;2.30;2.10;;;25.80;99.90;;;;;;5020131;28;20197;-90
2022/07/14 10:27:41;;;;;;;2.55;2.10;;;25.60;99.90;;;;;;5002780;28;20295;-82
2022/07/14 10:30:09;;;;;;;1.98;1.77;;;25.70;99.90;;;;;;5014967;28;20181;-83
2022/07/14 10:33:00;;;;;;;2.05;1.70;;;25.80;99.90;;;;;;5012067;28;20181;-82
2022/07/14 10:36:01;;;;;;;2.95;2.10;;;25.80;99.90;;;;;;5015647;28;20193;-83
2022/07/14 10:38:37;;;;;;;3.45;1.73;;;25.90;99.90;;;;;;5006757;28;20616;-83
2022/07/14 10:41:15;;;;;;;1.60;1.45;;;26.30;99.10;;;;;;4995520;28;20189;-84
2022/07/14 10:44:16;;;;;;;2.53;1.85;;;26.50;95.20;;;;;;4994693;28;20186;-84
2022/07/14 10:46:45;;;;;;;1.65;1.35;;;26.70;94.60;;;;;;4996101;28;20189;-85
2022/07/14 10:49:13;;;;;;;2.42;1.60;;;26.80;95.40;;;;;;4995813;28;20241;-84
2022/07/14 10:51:50;;;;;;;2.35;1.70;;;26.70;94.00;;;;;;4996999;28;20190;-84
2022/07/14 10:54:26;;;;;;;1.80;1.30;;;26.60;93.00;;;;;;4996176;28;20181;-84
2022/07/14 10:57:09;;;;;;;1.98;1.70;;;26.80;94.10;;;;;;4996124;28;20173;-85
2022/07/14 10:59:36;;;;;;;2.65;1.80;;;26.70;92.40;;;;;;5005270;28;20240;-85
2022/07/14 11:02:13;;;;;;;2.78;1.92;;;26.60;91.70;;;;;;4994351;28;20277;-85
2022/07/14 11:04:58;;;;;;;1.65;1.48;;;26.50;92.90;;;;;;5008327;28;20184;-84
2022/07/14 11:07:38;;;;;;;2.17;1.75;;;26.40;93.10;;;;;;5006987;28;20181;-85
2022/07/14 11:10:26;;;;;;;1.70;1.52;;;26.50;92.80;;;;;;5007367;28;20181;-84
2022/07/14 11:13:06;;;;;;;1.77;1.50;;;26.40;91.40;;;;;;4990209;28;20196;-84
2022/07/14 11:15:42;;;;;;;2.95;1.45;;;26.50;90.30;;;;;;4999605;28;20212;-84
2022/07/14 11:18:26;;;;;;;1.63;1.33;;;26.50;90.60;;;;;;5008032;28;20173;-84
2022/07/14 11:20:58;;;;;;;1.30;1.20;;;26.50;90.30;;;;;;5001247;28;20193;-85
2022/07/14 11:23:35;;;;;;;1.98;1.67;;;26.40;90.80;;;;;;5019773;28;20181;-83
2022/07/14 11:26:07;;;;;;;1.90;1.38;;;26.40;90.90;;;;;;4999707;28;20592;-83
2022/07/14 11:28:43;;;;;;;2.42;1.42;;;26.60;90.90;;;;;;5006544;28;20316;-83
2022/07/14 11:31:19;;;;;;;2.00;1.65;;;26.70;90.90;;;;;;5006884;28;20193;-84
2022/07/14 11:37:01;;;;;;;1.42;1.33;;;26.90;90.60;;;;;;5007318;28;20188;-83
2022/07/14 11:39:35;;;;;;;1.52;1.30;;;27.10;91.20;;;;;;5002314;28;20173;-82
2022/07/14 11:42:07;;;;;;;1.48;1.38;;;27.20;88.00;;;;;;5005746;28;20178;-84
2022/07/14 11:44:35;;;;;;;1.45;1.33;;;27.20;90.30;;;;;;5005221;28;20174;-83
2022/07/14 11:47:04;;;;;;;1.55;1.30;;;27.20;85.90;;;;;;5006844;28;20248;-83
2022/07/14 11:49:31;;;;;;;1.70;1.20;;;27.00;84.80;;;;;;5009470;28;20639;-83
2022/07/14 11:52:00;;;;;;;2.40;1.38;;;26.70;85.40;;;;;;4999373;28;20188;-84
2022/07/14 11:54:26;;;;;;;1.35;1.25;;;26.80;88.10;;;;;;5004582;28;20190;-83
2022/07/14 11:57:19;;;;;;;1.42;1.20;;;26.80;87.00;;;;;;4996757;28;20201;-84
2022/07/14 11:59:44;;;;;;;1.20;1.10;;;26.90;85.70;;;;;;5003076;28;20267;-82
2022/07/14 12:02:16;;;;;;;2.40;1.27;;;26.90;86.50;;;;;;5002882;28;20641;-84
2022/07/14 12:04:55;;;;;;;1.60;1.50;;;26.70;87.70;;;;;;4998257;28;20213;-84
2022/07/14 12:07:45;;;;;;;1.27;1.20;;;26.80;87.00;;;;;;4994165;28;20197;-84
2022/07/14 12:10:12;;;;;;;1.17;1.08;;;26.80;87.00;;;;;;4991457;28;20209;-83
2022/07/14 12:12:47;;;;;;;5.30;1.30;;;26.90;86.90;;;;;;4994210;28;20190;-83
2022/07/14 12:15:23;;;;;;;1.30;1.20;;;26.80;85.10;;;;;;5004250;28;20185;-83
2022/07/14 12:17:52;;;;;;;1.55;1.20;;;26.60;86.60;;;;;;5016435;28;20260;-83
2022/07/14 12:20:19;;;;;;;0.95;0.90;;;26.40;85.50;;;;;;4994759;28;20210;-84
2022/07/14 12:22:51;;;;;;;1.60;1.38;;;26.10;85.80;;;;;;4993978;28;20216;-83
2022/07/14 12:25:35;;;;;;;1.20;1.10;;;26.00;86.60;;;;;;4994879;28;20655;-83
2022/07/14 12:28:07;;;;;;;2.55;1.27;;;26.20;86.40;;;;;;4994483;28;20268;-85
2022/07/14 12:30:42;;;;;;;2.45;1.10;;;26.40;86.70;;;;;;5010753;28;20169;-84
2022/07/14 12:33:09;;;;;;;1.42;1.30;;;26.40;82.90;;;;;;5014003;28;20235;-84
2022/07/14 12:35:35;;;;;;;1.77;1.50;;;26.40;84.80;;;;;;5005500;28;20193;-83
2022/07/14 12:38:01;;;;;;;3.13;1.20;;;26.40;85.80;;;;;;4994434;28;20264;-86
2022/07/14 12:40:27;;;;;;;1.63;1.50;;;26.60;83.00;;;;;;4994646;28;20409;-83
2022/07/14 12:42:53;;;;;;;1.50;1.35;;;26.50;82.90;;;;;;4977203;28;20277;-84
2022/07/14 12:45:18;;;;;;;2.83;1.60;;;26.50;83.30;;;;;;4994117;28;20201;-83
2022/07/14 12:47:52;;;;;;;3.83;1.40;;;26.50;81.70;;;;;;4993646;28;20654;-84
2022/07/14 12:50:23;;;;;;;1.27;1.15;;;26.50;80.80;;;;;;4993071;28;20178;-83
2022/07/14 12:52:53;;;;;;;4.47;1.65;;;26.50;81.20;;;;;;4994511;28;20607;-83
2022/07/14 12:55:46;;;;;;;1.67;1.33;;;26.50;80.70;;;;;;4992866;28;20639;-84
2022/07/14 12:58:13;;;;;;;5.07;1.60;;;26.40;79.40;;;;;;4993998;28;20168;-84
2022/07/14 13:00:41;;;;;;;1.30;1.17;;;26.40;80.00;;;;;;4993019;28;20268;-85
2022/07/14 13:03:15;;;;;;;1.50;1.23;;;26.40;81.00;;;;;;5009469;28;20192;-84
2022/07/14 13:05:51;;;;;;;1.55;1.13;;;26.40;81.10;;;;;;5013400;28;20201;-84